Rouen Vallée de Seine Airport

LFOP · Seine-Maritime, Normandy, 法国

2024年4月13日 17:002024年4月14日 02:00有效
时间
星期六
17:00
星期六
18:00
星期六
19:00
星期六
20:00
星期六
21:00
星期六
22:00
星期六
23:00
星期日
00:00
星期日
01:00
40%
代码
VFR
VFR
VFR
VFR
VFR
VFR
VFR
VFR
IFR
天气
天空晴朗
天空晴朗
天空晴朗
天空晴朗
天空晴朗
天空晴朗
天空晴朗
天空晴朗
天空晴朗
能见度
10 km+
10 km+
10 km+
10 km+
10 km+
10 km+
10 km+
10 km+
10 km+
天花板
-
-
-
-
-
-
-
-
-
230°
230°
230°
230°
230°
230°
290°
290°
290°
290°
290°
290°
290°
290°
290°
290°
290°
290°
速度
13 kt
13 kt
13 kt
13 kt
13 kt
8 kt
8 kt
8 kt
8 kt
阵风
温度/星期日
20:45

原版的

TAF LFOP 131400Z 1315/1324 23013KT CAVOK
BECMG 1318/1320 29008KT
PROB40 1323/1324 BKN007

TAF Rouen Airport

Rouen Airport是,法国中的中型机场。 该机场位于纬度49,38525和经度1,17620。 该机场有一条跑道: 5/23. 本场的ICAO机场代码为LFOP。 该机场的IATA代码为URO。 机场在Paris FIR中。

该航空气象观测是针对Rouen Airport在2024年4月13日 16:00, 当地时间进行的。 从2024年4月13日 17:00到2024年4月14日 02:00, 当地时间有效.

预报

  • 在星期六 17:00和星期日 02:00之间

    • 风: 风来自230°方向,速度为13 kt。
    • CAVOK: 天气为CAVOK。这意味着在5.000 ft或MSA(最低安全高度)以下(以较高者为准)以下没有云。这也意味着没有观测到积雨云或高耸的积云,可见度为10 km 或者更多或更高。此外,不会有雾,降雨或其他重要天气。
  • 介于星期六 20:00和22:00之间

    • 风: 风来自290°方向,速度为8 kt。
  • 在星期日 01:00和02:00之间 ({一个机会)

    • 乌云: 碎云在700 ft的高度.

白天

今天,太阳从07:06升起,在20:45降落。 这适用于Rouen Airport,世界夏令时可能有所不同。 当地时间与世界标准时间之间的时差为+2 小时。 夏令时目前正在进行中。

报告变更